^^
Saratoga-Weather Station Historical Data
Daily Summary for July 29, 2021 Units:  Both    English   Metric
Daily Weekly Monthly Yearly Custom
  High: Low: Average:
Temperature: 64.6 °F /  18.1 °C 56.8 °F /  13.8 °C 60.1 °F /  15.6 °C
Dew Point: 56.1 °F /  13.4 °C 52 °F /  11.1 °C 54.5 °F /  12.5 °C
Humidity: 92% 72% 82%
Wind Speed: 10.1mph /  16.3km/h - 2.9mph /  4.7km/h
Wind Gust: 11mph /  17.7km/h - -
Wind- - West
Pressure: 30.1 in /  1019.0 hPa 30 in /  1016.9 hPa -
Precipitation: 0.01 in /  0.2 mm    
Historical Graphs
 
 
Tabular Data for July 29, 2021
Time Temperature Dew Point Pressure Wind Wind Speed Wind Gust Humidity Rainfall Rate (Hourly) solar
00:04 58.8 °F /  14.9 °C 55.2 °F /  12.9 °C 30.1in /  1018.6hPa WNW 2mph /  3.2km/h 4mph /  6.4km/h 88% 0in /  0.0mm 0 W/m2
00:09 58.8 °F /  14.9 °C 55.2 °F /  12.9 °C 30.1in /  1018.6hPa West 0.9mph /  1.4km/h 7mph /  11.3km/h 88% 0in /  0.0mm 0 W/m2
00:14 58.8 °F /  14.9 °C 55.2 °F /  12.9 °C 30.1in /  1018.6hPa WNW 2mph /  3.2km/h 4mph /  6.4km/h 88% 0in /  0.0mm 0 W/m2
00:19 58.8 °F /  14.9 °C 55.2 °F /  12.9 °C 30.1in /  1018.6hPa West 6mph /  9.7km/h 6mph /  9.7km/h 88% 0in /  0.0mm 0 W/m2
00:24 58.8 °F /  14.9 °C 55.2 °F /  12.9 °C 30.1in /  1018.6hPa WNW 0.9mph /  1.4km/h 3mph /  4.8km/h 88% 0in /  0.0mm 0 W/m2
00:29 58.8 °F /  14.9 °C 55.2 °F /  12.9 °C 30.1in /  1018.6hPa WNW 4.9mph /  7.9km/h 9mph /  14.5km/h 88% 0in /  0.0mm 0 W/m2
00:34 58.8 °F /  14.9 °C 55.2 °F /  12.9 °C 30.1in /  1018.6hPa WSW 4mph /  6.4km/h 7mph /  11.3km/h 88% 0in /  0.0mm 0 W/m2
00:39 58.8 °F /  14.9 °C 55.2 °F /  12.9 °C 30.1in /  1018.6hPa West 0.9mph /  1.4km/h 7mph /  11.3km/h 88% 0in /  0.0mm 0 W/m2
00:44 59 °F /  15 °C 55.2 °F /  12.9 °C 30.1in /  1018.6hPa West 2mph /  3.2km/h 2mph /  3.2km/h 87% 0in /  0.0mm 0 W/m2
00:49 59 °F /  15 °C 55.2 °F /  12.9 °C 30.1in /  1018.6hPa West 0.9mph /  1.4km/h 2mph /  3.2km/h 87% 0in /  0.0mm 0 W/m2
00:54 58.8 °F /  14.9 °C 55 °F /  12.8 °C 30.1in /  1018.6hPa West 0.9mph /  1.4km/h 2mph /  3.2km/h 87% 0in /  0.0mm 0 W/m2
00:59 58.8 °F /  14.9 °C 55.2 °F /  12.9 °C 30.1in /  1019.0hPa West 2mph /  3.2km/h 2mph /  3.2km/h 88% 0in /  0.0mm 0 W/m2
01:04 58.8 °F /  14.9 °C 55.2 °F /  12.9 °C 30.1in /  1018.6hPa West 2.9mph /  4.7km/h 4mph /  6.4km/h 88% 0in /  0.0mm 0 W/m2
01:09 59.2 °F /  15.1 °C 55.4 °F /  13 °C 30.1in /  1018.6hPa Calm   1mph /  1.6km/h 87% 0in /  0.0mm 0 W/m2
01:14 59.4 °F /  15.2 °C 55.4 °F /  13 °C 30.1in /  1018.6hPa NW 2mph /  3.2km/h 4mph /  6.4km/h 87% 0in /  0.0mm 0 W/m2
01:19 59.5 °F /  15.3 °C 55.4 °F /  13 °C 30.1in /  1018.6hPa North 4mph /  6.4km/h 7mph /  11.3km/h 86% 0in /  0.0mm 0 W/m2
01:24 59.9 °F /  15.5 °C 55.4 °F /  13 °C 30.1in /  1018.6hPa NW 0.9mph /  1.4km/h 3mph /  4.8km/h 85% 0in /  0.0mm 0 W/m2
01:29 60.1 °F /  15.6 °C 55.6 °F /  13.1 °C 30.1in /  1018.6hPa WSW 2mph /  3.2km/h 3mph /  4.8km/h 85% 0in /  0.0mm 0 W/m2
01:34 60.1 °F /  15.6 °C 55.2 °F /  12.9 °C 30.1in /  1018.6hPa ENE 0.9mph /  1.4km/h 4mph /  6.4km/h 84% 0in /  0.0mm 0 W/m2
01:39 60.1 °F /  15.6 °C 55.2 °F /  12.9 °C 30.1in /  1018.6hPa ENE 2.9mph /  4.7km/h 3mph /  4.8km/h 84% 0in /  0.0mm 0 W/m2
01:44 60.1 °F /  15.6 °C 55.2 °F /  12.9 °C 30.1in /  1018.6hPa North 2.9mph /  4.7km/h 6mph /  9.7km/h 84% 0in /  0.0mm 0 W/m2
01:49 59.7 °F /  15.4 °C 54.9 °F /  12.7 °C 30.1in /  1018.6hPa SW 2mph /  3.2km/h 4mph /  6.4km/h 84% 0in /  0.0mm 0 W/m2
01:54 59.7 °F /  15.4 °C 54.9 °F /  12.7 °C 30.1in /  1018.6hPa WNW 2.9mph /  4.7km/h 4mph /  6.4km/h 84% 0in /  0.0mm 0 W/m2
01:59 59.5 °F /  15.3 °C 54.7 °F /  12.6 °C 30.1in /  1018.6hPa North 4mph /  6.4km/h 5mph /  8km/h 84% 0in /  0.0mm 0 W/m2
02:04 59.5 °F /  15.3 °C 54.7 °F /  12.6 °C 30.1in /  1018.3hPa North 2mph /  3.2km/h 6mph /  9.7km/h 84% 0in /  0.0mm 0 W/m2
02:09 59.4 °F /  15.2 °C 54.5 °F /  12.5 °C 30.1in /  1018.6hPa West 2.9mph /  4.7km/h 5mph /  8km/h 84% 0in /  0.0mm 0 W/m2
02:14 59.4 °F /  15.2 °C 54.5 °F /  12.5 °C 30.1in /  1018.6hPa NW 0.9mph /  1.4km/h 4mph /  6.4km/h 84% 0in /  0.0mm 0 W/m2
02:19 59.4 °F /  15.2 °C 54.5 °F /  12.5 °C 30.1in /  1018.6hPa WNW 4mph /  6.4km/h 7mph /  11.3km/h 84% 0in /  0.0mm 0 W/m2
02:24 59.2 °F /  15.1 °C 54.3 °F /  12.4 °C 30.1in /  1018.6hPa ENE 0.9mph /  1.4km/h 4mph /  6.4km/h 84% 0in /  0.0mm 0 W/m2
02:29 59.2 °F /  15.1 °C 54.3 °F /  12.4 °C 30.1in /  1018.6hPa WNW 2.9mph /  4.7km/h 5mph /  8km/h 84% 0in /  0.0mm 0 W/m2
02:34 59.2 °F /  15.1 °C 54.3 °F /  12.4 °C 30.1in /  1018.6hPa NNE 0.9mph /  1.4km/h 2mph /  3.2km/h 84% 0in /  0.0mm 0 W/m2
02:39 59.2 °F /  15.1 °C 54.3 °F /  12.4 °C 30.1in /  1018.6hPa NNW 0.9mph /  1.4km/h 4mph /  6.4km/h 84% 0in /  0.0mm 0 W/m2
02:44 59.2 °F /  15.1 °C 54.3 °F /  12.4 °C 30.1in /  1018.6hPa NW 2mph /  3.2km/h 3mph /  4.8km/h 84% 0in /  0.0mm 0 W/m2
02:49 59.2 °F /  15.1 °C 54 °F /  12.2 °C 30.1in /  1018.3hPa SSW 0.9mph /  1.4km/h 4mph /  6.4km/h 83% 0in /  0.0mm 0 W/m2
02:54 59.4 °F /  15.2 °C 53.8 °F /  12.1 °C 30.1in /  1018.3hPa WSW 2mph /  3.2km/h 3mph /  4.8km/h 82% 0in /  0.0mm 0 W/m2
02:59 59.2 °F /  15.1 °C 53.6 °F /  12 °C 30.1in /  1018.3hPa North 2mph /  3.2km/h 7mph /  11.3km/h 82% 0in /  0.0mm 0 W/m2
03:04 59.2 °F /  15.1 °C 53.6 °F /  12 °C 30.1in /  1018.3hPa Calm   5mph /  8km/h 82% 0in /  0.0mm 0 W/m2
03:09 59 °F /  15 °C 53.6 °F /  12 °C 30.1in /  1018.3hPa WNW 2mph /  3.2km/h 4mph /  6.4km/h 82% 0in /  0.0mm 0 W/m2
03:14 58.8 °F /  14.9 °C 53.6 °F /  12 °C 30.1in /  1018.3hPa North 0.9mph /  1.4km/h 4mph /  6.4km/h 83% 0in /  0.0mm 0 W/m2
03:19 58.8 °F /  14.9 °C 53.6 °F /  12 °C 30.1in /  1018.3hPa West 2mph /  3.2km/h 3mph /  4.8km/h 83% 0in /  0.0mm 0 W/m2
03:24 58.5 °F /  14.7 °C 53.2 °F /  11.8 °C 30.1in /  1018.3hPa West 0.9mph /  1.4km/h 3mph /  4.8km/h 83% 0in /  0.0mm 0 W/m2
03:29 58.3 °F /  14.6 °C 53.4 °F /  11.9 °C 30.1in /  1018.0hPa Calm   1mph /  1.6km/h 84% 0in /  0.0mm 0 W/m2
03:34 57.7 °F /  14.3 °C 52.9 °F /  11.6 °C 30.1in /  1018.0hPa West 0.9mph /  1.4km/h 3mph /  4.8km/h 84% 0in /  0.0mm 0 W/m2
03:39 57.6 °F /  14.2 °C 53.1 °F /  11.7 °C 30.1in /  1018.0hPa Calm   3mph /  4.8km/h 85% 0in /  0.0mm 0 W/m2
03:44 57.4 °F /  14.1 °C 53.2 °F /  11.8 °C 30.1in /  1018.0hPa WSW 2.9mph /  4.7km/h 4mph /  6.4km/h 86% 0in /  0.0mm 0 W/m2
03:49 57.2 °F /  14 °C 53.1 °F /  11.7 °C 30.1in /  1018.0hPa WSW 2mph /  3.2km/h 4mph /  6.4km/h 86% 0in /  0.0mm 0 W/m2
03:54 57 °F /  13.9 °C 52.9 °F /  11.6 °C 30.1in /  1018.0hPa West 4mph /  6.4km/h 5mph /  8km/h 86% 0in /  0.0mm 0 W/m2
03:59 57 °F /  13.9 °C 53.2 °F /  11.8 °C 30.1in /  1018.0hPa WSW 6.9mph /  11.1km/h 8mph /  12.9km/h 87% 0in /  0.0mm 0 W/m2
04:04 57 °F /  13.9 °C 53.2 °F /  11.8 °C 30.1in /  1018.0hPa West 2mph /  3.2km/h 4mph /  6.4km/h 87% 0in /  0.0mm 0 W/m2
04:09 56.8 °F /  13.8 °C 53.1 °F /  11.7 °C 30.1in /  1018.0hPa WNW 2mph /  3.2km/h 7mph /  11.3km/h 87% 0in /  0.0mm 0 W/m2
04:14 56.8 °F /  13.8 °C 53.1 °F /  11.7 °C 30.1in /  1018.0hPa West 2.9mph /  4.7km/h 9mph /  14.5km/h 87% 0in /  0.0mm 0 W/m2
04:19 56.8 °F /  13.8 °C 53.1 °F /  11.7 °C 30.1in /  1018.0hPa West 6mph /  9.7km/h 6mph /  9.7km/h 87% 0in /  0.0mm 0 W/m2
04:24 56.8 °F /  13.8 °C 53.2 °F /  11.8 °C 30.1in /  1018.0hPa West 2.9mph /  4.7km/h 6mph /  9.7km/h 88% 0in /  0.0mm 0 W/m2
04:29 56.8 °F /  13.8 °C 53.2 °F /  11.8 °C 30.1in /  1018.0hPa West 2mph /  3.2km/h 4mph /  6.4km/h 88% 0in /  0.0mm 0 W/m2
04:34 56.8 °F /  13.8 °C 53.2 °F /  11.8 °C 30.1in /  1018.0hPa West 4mph /  6.4km/h 4mph /  6.4km/h 88% 0in /  0.0mm 0 W/m2
04:39 56.8 °F /  13.8 °C 53.2 °F /  11.8 °C 30.1in /  1018.0hPa West 2.9mph /  4.7km/h 6mph /  9.7km/h 88% 0in /  0.0mm 0 W/m2
04:45 57 °F /  13.9 °C 53.4 °F /  11.9 °C 30.1in /  1018.0hPa West 0.9mph /  1.4km/h 2mph /  3.2km/h 88% 0in /  0.0mm 0 W/m2
04:50 57 °F /  13.9 °C 53.2 °F /  11.8 °C 30.1in /  1018.0hPa West 2mph /  3.2km/h 7mph /  11.3km/h 87% 0in /  0.0mm 0 W/m2
04:55 57 °F /  13.9 °C 53.2 °F /  11.8 °C 30.1in /  1018.0hPa Calm   2mph /  3.2km/h 87% 0in /  0.0mm 0 W/m2
05:00 57.2 °F /  14 °C 53.4 °F /  11.9 °C 30.1in /  1018.0hPa WSW 2.9mph /  4.7km/h 7mph /  11.3km/h 87% 0in /  0.0mm 0 W/m2
05:05 57.2 °F /  14 °C 53.4 °F /  11.9 °C 30.1in /  1018.0hPa Calm   1mph /  1.6km/h 87% 0in /  0.0mm 0 W/m2
05:10 57.2 °F /  14 °C 53.4 °F /  11.9 °C 30.1in /  1018.0hPa West 2.9mph /  4.7km/h 3mph /  4.8km/h 87% 0in /  0.0mm 0 W/m2
05:15 57.2 °F /  14 °C 53.4 °F /  11.9 °C 30.1in /  1018.0hPa West 4mph /  6.4km/h 4mph /  6.4km/h 87% 0in /  0.0mm 0 W/m2
05:20 57.2 °F /  14 °C 53.1 °F /  11.7 °C 30.1in /  1018.0hPa West 2mph /  3.2km/h 4mph /  6.4km/h 86% 0in /  0.0mm 0 W/m2
05:25 57.2 °F /  14 °C 53.1 °F /  11.7 °C 30.1in /  1018.0hPa WSW 2.9mph /  4.7km/h 3mph /  4.8km/h 86% 0in /  0.0mm 0 W/m2
05:30 57.4 °F /  14.1 °C 53.2 °F /  11.8 °C 30.1in /  1018.0hPa WNW 2mph /  3.2km/h 6mph /  9.7km/h 86% 0in /  0.0mm 0 W/m2
05:35 57.4 °F /  14.1 °C 53.2 °F /  11.8 °C 30.1in /  1018.0hPa West 2mph /  3.2km/h 6mph /  9.7km/h 86% 0in /  0.0mm 0 W/m2
05:40 57.4 °F /  14.1 °C 53.2 °F /  11.8 °C 30.1in /  1018.0hPa West 4mph /  6.4km/h 7mph /  11.3km/h 86% 0in /  0.0mm 0 W/m2
05:45 57.4 °F /  14.1 °C 53.2 °F /  11.8 °C 30.1in /  1018.0hPa WSW 2.9mph /  4.7km/h 6mph /  9.7km/h 86% 0in /  0.0mm 0 W/m2
05:50 57.4 °F /  14.1 °C 53.2 °F /  11.8 °C 30.1in /  1018.0hPa WNW 2.9mph /  4.7km/h 4mph /  6.4km/h 86% 0in /  0.0mm 0 W/m2
05:55 57.4 °F /  14.1 °C 53.2 °F /  11.8 °C 30.1in /  1018.0hPa West 2mph /  3.2km/h 7mph /  11.3km/h 86% 0in /  0.0mm 0 W/m2
06:00 57.4 °F /  14.1 °C 53.2 °F /  11.8 °C 30.1in /  1018.0hPa WNW 4mph /  6.4km/h 7mph /  11.3km/h 86% 0in /  0.0mm 0 W/m2
06:05 57.6 °F /  14.2 °C 53.1 °F /  11.7 °C 30.1in /  1018.0hPa West 2mph /  3.2km/h 3mph /  4.8km/h 85% 0in /  0.0mm 0 W/m2
06:10 57.4 °F /  14.1 °C 52.9 °F /  11.6 °C 30.1in /  1018.0hPa Calm   5mph /  8km/h 85% 0in /  0.0mm 0 W/m2
06:15 57.4 °F /  14.1 °C 52.9 °F /  11.6 °C 30.1in /  1018.0hPa WNW 2mph /  3.2km/h 2mph /  3.2km/h 85% 0in /  0.0mm 0 W/m2
06:20 57.6 °F /  14.2 °C 52.7 °F /  11.5 °C 30.1in /  1018.0hPa NW 2mph /  3.2km/h 4mph /  6.4km/h 84% 0in /  0.0mm 0 W/m2
06:25 57.7 °F /  14.3 °C 53.2 °F /  11.8 °C 30.1in /  1018.0hPa Calm   3mph /  4.8km/h 85% 0in /  0.0mm 0 W/m2
06:30 57.6 °F /  14.2 °C 52.7 °F /  11.5 °C 30.1in /  1018.0hPa West 2mph /  3.2km/h 3mph /  4.8km/h 84% 0in /  0.0mm 0 W/m2
06:35 57.6 °F /  14.2 °C 52.7 °F /  11.5 °C 30.1in /  1017.6hPa WNW 0.9mph /  1.4km/h 8mph /  12.9km/h 84% 0in /  0.0mm 0 W/m2
06:40 57.6 °F /  14.2 °C 52.7 °F /  11.5 °C 30.1in /  1017.6hPa WNW 2mph /  3.2km/h 7mph /  11.3km/h 84% 0in /  0.0mm 0 W/m2
06:45 57.7 °F /  14.3 °C 52.9 °F /  11.6 °C 30.1in /  1018.0hPa NNW 2mph /  3.2km/h 3mph /  4.8km/h 84% 0in /  0.0mm 0 W/m2
06:50 57.7 °F /  14.3 °C 52.9 °F /  11.6 °C 30.1in /  1018.0hPa NW 0.9mph /  1.4km/h 4mph /  6.4km/h 84% 0in /  0.0mm 0 W/m2
06:55 57.6 °F /  14.2 °C 52.7 °F /  11.5 °C 30.1in /  1017.6hPa WSW 2mph /  3.2km/h 4mph /  6.4km/h 84% 0in /  0.0mm 0 W/m2
07:00 57.6 °F /  14.2 °C 52.7 °F /  11.5 °C 30.1in /  1018.0hPa WSW 2mph /  3.2km/h 3mph /  4.8km/h 84% 0in /  0.0mm 0 W/m2
07:05 57.6 °F /  14.2 °C 52.7 °F /  11.5 °C 30.1in /  1017.6hPa West 2mph /  3.2km/h 7mph /  11.3km/h 84% 0in /  0.0mm 5 W/m2
07:10 57.6 °F /  14.2 °C 52.7 °F /  11.5 °C 30.1in /  1017.6hPa West 2mph /  3.2km/h 3mph /  4.8km/h 84% 0in /  0.0mm 7 W/m2
07:15 57.6 °F /  14.2 °C 52.7 °F /  11.5 °C 30.1in /  1018.0hPa Calm   3mph /  4.8km/h 84% 0in /  0.0mm 11 W/m2
07:20 57.6 °F /  14.2 °C 52.7 °F /  11.5 °C 30.1in /  1018.0hPa ESE 2mph /  3.2km/h 4mph /  6.4km/h 84% 0in /  0.0mm 12 W/m2
07:25 57.6 °F /  14.2 °C 52.5 °F /  11.4 °C 30.1in /  1018.0hPa Calm   2mph /  3.2km/h 83% 0in /  0.0mm 16 W/m2
07:30 57.7 °F /  14.3 °C 52.7 °F /  11.5 °C 30.1in /  1018.0hPa WNW 0.9mph /  1.4km/h 2mph /  3.2km/h 83% 0in /  0.0mm 23 W/m2
07:35 57.7 °F /  14.3 °C 52.3 °F /  11.3 °C 30.1in /  1018.0hPa East 0.9mph /  1.4km/h 4mph /  6.4km/h 82% 0in /  0.0mm 28 W/m2
07:40 57.9 °F /  14.4 °C 52.5 °F /  11.4 °C 30.1in /  1018.0hPa ENE 0.9mph /  1.4km/h 3mph /  4.8km/h 82% 0in /  0.0mm 35 W/m2
07:45 58.1 °F /  14.5 °C 52 °F /  11.1 °C 30.1in /  1018.0hPa NNW 0.9mph /  1.4km/h 3mph /  4.8km/h 80% 0in /  0.0mm 42 W/m2
07:50 58.5 °F /  14.7 °C 52.3 °F /  11.3 °C 30.1in /  1018.0hPa NNW 2.9mph /  4.7km/h 3mph /  4.8km/h 80% 0in /  0.0mm 62 W/m2
07:55 58.6 °F /  14.8 °C 52.2 °F /  11.2 °C 30.1in /  1018.0hPa NE 2mph /  3.2km/h 6mph /  9.7km/h 79% 0in /  0.0mm 69 W/m2
08:00 59 °F /  15 °C 52.2 °F /  11.2 °C 30.1in /  1018.0hPa East 0.9mph /  1.4km/h 6mph /  9.7km/h 78% 0in /  0.0mm 69 W/m2
08:05 59.2 °F /  15.1 °C 52 °F /  11.1 °C 30.1in /  1018.0hPa WNW 2mph /  3.2km/h 8mph /  12.9km/h 77% 0in /  0.0mm 76 W/m2
08:10 59.4 °F /  15.2 °C 52.5 °F /  11.4 °C 30.1in /  1018.0hPa Calm   1mph /  1.6km/h 78% 0in /  0.0mm 120 W/m2
08:15 59.5 °F /  15.3 °C 52.3 °F /  11.3 °C 30.1in /  1018.0hPa NNW 2mph /  3.2km/h 4mph /  6.4km/h 77% 0in /  0.0mm 114 W/m2
08:20 60.1 °F /  15.6 °C 52.9 °F /  11.6 °C 30.1in /  1018.0hPa NNW 4mph /  6.4km/h 6mph /  9.7km/h 77% 0in /  0.0mm 139 W/m2
08:25 60.3 °F /  15.7 °C 52.3 °F /  11.3 °C 30.1in /  1018.0hPa West 2.9mph /  4.7km/h 7mph /  11.3km/h 75% 0in /  0.0mm 199 W/m2
08:30 60.4 °F /  15.8 °C 52.5 °F /  11.4 °C 30.1in /  1018.0hPa East 0.9mph /  1.4km/h 5mph /  8km/h 75% 0in /  0.0mm 257 W/m2
08:35 60.8 °F /  16 °C 52.9 °F /  11.6 °C 30.1in /  1018.0hPa WSW 4.9mph /  7.9km/h 7mph /  11.3km/h 75% 0in /  0.0mm 139 W/m2
08:40 61 °F /  16.1 °C 53.1 °F /  11.7 °C 30.1in /  1018.0hPa WNW 4mph /  6.4km/h 4mph /  6.4km/h 75% 0in /  0.0mm 113 W/m2
08:45 60.6 °F /  15.9 °C 53.1 °F /  11.7 °C 30.1in /  1018.0hPa WNW 0.9mph /  1.4km/h 7mph /  11.3km/h 76% 0in /  0.0mm 107 W/m2
08:50 60.4 °F /  15.8 °C 53.2 °F /  11.8 °C 30.1in /  1018.0hPa WNW 4mph /  6.4km/h 7mph /  11.3km/h 77% 0in /  0.0mm 123 W/m2
08:55 60.1 °F /  15.6 °C 53.2 °F /  11.8 °C 30.1in /  1018.0hPa West 2mph /  3.2km/h 4mph /  6.4km/h 78% 0in /  0.0mm 123 W/m2
09:00 59.9 °F /  15.5 °C 53.1 °F /  11.7 °C 30.1in /  1018.0hPa WSW 4mph /  6.4km/h 7mph /  11.3km/h 78% 0in /  0.0mm 98 W/m2
09:05 59.7 °F /  15.4 °C 53.2 °F /  11.8 °C 30.1in /  1018.0hPa WNW 4mph /  6.4km/h 6mph /  9.7km/h 79% 0in /  0.0mm 77 W/m2
09:10 59.7 °F /  15.4 °C 52.9 °F /  11.6 °C 30.1in /  1018.0hPa West 2.9mph /  4.7km/h 4mph /  6.4km/h 78% 0in /  0.0mm 105 W/m2
09:15 59.7 °F /  15.4 °C 52.9 °F /  11.6 °C 30.1in /  1018.0hPa WNW 2.9mph /  4.7km/h 4mph /  6.4km/h 78% 0in /  0.0mm 118 W/m2
09:20 59.7 °F /  15.4 °C 52.9 °F /  11.6 °C 30.1in /  1018.0hPa West 4mph /  6.4km/h 5mph /  8km/h 78% 0in /  0.0mm 121 W/m2
09:25 59.9 °F /  15.5 °C 53.1 °F /  11.7 °C 30.1in /  1018.0hPa WNW 4mph /  6.4km/h 7mph /  11.3km/h 78% 0in /  0.0mm 128 W/m2
09:30 60.1 °F /  15.6 °C 53.2 °F /  11.8 °C 30.1in /  1018.0hPa NW 2.9mph /  4.7km/h 4mph /  6.4km/h 78% 0in /  0.0mm 104 W/m2
09:35 60.1 °F /  15.6 °C 53.2 °F /  11.8 °C 30.1in /  1018.0hPa WSW 2mph /  3.2km/h 8mph /  12.9km/h 78% 0in /  0.0mm 90 W/m2
09:40 60.1 °F /  15.6 °C 53.6 °F /  12 °C 30.1in /  1018.0hPa NNW 2.9mph /  4.7km/h 7mph /  11.3km/h 79% 0in /  0.0mm 102 W/m2
09:45 60.1 °F /  15.6 °C 53.2 °F /  11.8 °C 30.1in /  1018.0hPa West 2mph /  3.2km/h 8mph /  12.9km/h 78% 0in /  0.0mm 97 W/m2
09:50 60.1 °F /  15.6 °C 53.2 °F /  11.8 °C 30.1in /  1018.0hPa WNW 4.9mph /  7.9km/h 5mph /  8km/h 78% 0in /  0.0mm 67 W/m2
09:55 59.9 °F /  15.5 °C 53.1 °F /  11.7 °C 30.1in /  1018.0hPa West 2.9mph /  4.7km/h 7mph /  11.3km/h 78% 0in /  0.0mm 60 W/m2
10:00 60.1 °F /  15.6 °C 53.2 °F /  11.8 °C 30.1in /  1018.0hPa NW 0.9mph /  1.4km/h 5mph /  8km/h 78% 0in /  0.0mm 74 W/m2
10:05 60.1 °F /  15.6 °C 53.2 °F /  11.8 °C 30.1in /  1018.0hPa West 2mph /  3.2km/h 5mph /  8km/h 78% 0in /  0.0mm 128 W/m2
10:10 60.3 °F /  15.7 °C 53.4 °F /  11.9 °C 30.1in /  1018.0hPa West 2mph /  3.2km/h 4mph /  6.4km/h 78% 0in /  0.0mm 95 W/m2
10:15 60.3 °F /  15.7 °C 53.4 °F /  11.9 °C 30.1in /  1018.0hPa WNW 4mph /  6.4km/h 7mph /  11.3km/h 78% 0in /  0.0mm 120 W/m2
10:20 60.4 °F /  15.8 °C 53.6 °F /  12 °C 30.1in /  1018.0hPa WNW 4.9mph /  7.9km/h 9mph /  14.5km/h 78% 0in /  0.0mm 130 W/m2
10:25 60.6 °F /  15.9 °C 53.8 °F /  12.1 °C 30.1in /  1018.0hPa WSW 4mph /  6.4km/h 9mph /  14.5km/h 78% 0in /  0.0mm 202 W/m2
10:30 60.8 °F /  16 °C 54 °F /  12.2 °C 30.1in /  1018.0hPa NW 2.9mph /  4.7km/h 4mph /  6.4km/h 78% 0in /  0.0mm 202 W/m2
10:35 61 °F /  16.1 °C 53.8 °F /  12.1 °C 30.1in /  1018.0hPa WNW 2mph /  3.2km/h 9mph /  14.5km/h 77% 0in /  0.0mm 163 W/m2
10:40 61.2 °F /  16.2 °C 54 °F /  12.2 °C 30.1in /  1018.0hPa West 6.9mph /  11.1km/h 8mph /  12.9km/h 77% 0in /  0.0mm 146 W/m2
10:45 61.2 °F /  16.2 °C 54 °F /  12.2 °C 30.1in /  1018.0hPa NW 6.9mph /  11.1km/h 7mph /  11.3km/h 77% 0in /  0.0mm 105 W/m2
10:50 61.2 °F /  16.2 °C 54 °F /  12.2 °C 30.1in /  1018.0hPa WSW 2mph /  3.2km/h 5mph /  8km/h 77% 0in /  0.0mm 120 W/m2
10:55 61.2 °F /  16.2 °C 54 °F /  12.2 °C 30.1in /  1018.0hPa West 0.9mph /  1.4km/h 4mph /  6.4km/h 77% 0in /  0.0mm 130 W/m2
11:01 61.3 °F /  16.3 °C 54.1 °F /  12.3 °C 30.1in /  1018.0hPa North 4.9mph /  7.9km/h 8mph /  12.9km/h 77% 0in /  0.0mm 134 W/m2
11:06 61.3 °F /  16.3 °C 53.8 °F /  12.1 °C 30.1in /  1018.0hPa West 2.9mph /  4.7km/h 8mph /  12.9km/h 76% 0in /  0.0mm 125 W/m2
11:11 61.5 °F /  16.4 °C 54 °F /  12.2 °C 30.1in /  1018.0hPa West 2.9mph /  4.7km/h 3mph /  4.8km/h 76% 0in /  0.0mm 125 W/m2
11:16 61.5 °F /  16.4 °C 54.3 °F /  12.4 °C 30.1in /  1018.0hPa NW 2mph /  3.2km/h 8mph /  12.9km/h 77% 0in /  0.0mm 100 W/m2
11:21 61.5 °F /  16.4 °C 54 °F /  12.2 °C 30.1in /  1018.0hPa West 2.9mph /  4.7km/h 8mph /  12.9km/h 76% 0in /  0.0mm 76 W/m2
11:26 61.5 °F /  16.4 °C 54 °F /  12.2 °C 30.1in /  1018.0hPa West 2.9mph /  4.7km/h 11mph /  17.7km/h 76% 0in /  0.0mm 93 W/m2
11:31 61.5 °F /  16.4 °C 54 °F /  12.2 °C 30.1in /  1018.0hPa SSW 2mph /  3.2km/h 4mph /  6.4km/h 76% 0in /  0.0mm 91 W/m2
11:36 61.5 °F /  16.4 °C 54.3 °F /  12.4 °C 30.1in /  1018.3hPa WNW 2.9mph /  4.7km/h 11mph /  17.7km/h 77% 0in /  0.0mm 104 W/m2
11:41 61.5 °F /  16.4 °C 54 °F /  12.2 °C 30.1in /  1018.0hPa West 2.9mph /  4.7km/h 7mph /  11.3km/h 76% 0in /  0.0mm 146 W/m2
11:46 61.7 °F /  16.5 °C 54.1 °F /  12.3 °C 30.1in /  1018.0hPa WNW 4mph /  6.4km/h 9mph /  14.5km/h 76% 0in /  0.0mm 165 W/m2
11:51 61.7 °F /  16.5 °C 54.1 °F /  12.3 °C 30.1in /  1018.0hPa NW 4.9mph /  7.9km/h 8mph /  12.9km/h 76% 0in /  0.0mm 190 W/m2
11:56 61.9 °F /  16.6 °C 53.8 °F /  12.1 °C 30.1in /  1018.0hPa West 6.9mph /  11.1km/h 7mph /  11.3km/h 75% 0in /  0.0mm 236 W/m2
12:01 62.1 °F /  16.7 °C 54.3 °F /  12.4 °C 30.1in /  1018.0hPa West 2.9mph /  4.7km/h 5mph /  8km/h 76% 0in /  0.0mm 258 W/m2
12:06 62.2 °F /  16.8 °C 54.1 °F /  12.3 °C 30.1in /  1018.0hPa WNW 2mph /  3.2km/h 8mph /  12.9km/h 75% 0in /  0.0mm 294 W/m2
12:11 62.4 °F /  16.9 °C 54.3 °F /  12.4 °C 30.1in /  1018.0hPa NW 2mph /  3.2km/h 7mph /  11.3km/h 75% 0in /  0.0mm 285 W/m2
12:16 62.6 °F /  17 °C 54.5 °F /  12.5 °C 30.1in /  1018.0hPa WNW 2.9mph /  4.7km/h 8mph /  12.9km/h 75% 0in /  0.0mm 251 W/m2
12:21 62.8 °F /  17.1 °C 54.3 °F /  12.4 °C 30.1in /  1018.0hPa NW 2mph /  3.2km/h 4mph /  6.4km/h 74% 0in /  0.0mm 141 W/m2
12:26 62.6 °F /  17 °C 54.1 °F /  12.3 °C 30.1in /  1018.0hPa WNW 2mph /  3.2km/h 7mph /  11.3km/h 74% 0in /  0.0mm 113 W/m2
12:31 62.4 °F /  16.9 °C 54.3 °F /  12.4 °C 30.1in /  1018.0hPa West 2mph /  3.2km/h 4mph /  6.4km/h 75% 0in /  0.0mm 139 W/m2
12:36 62.4 °F /  16.9 °C 54.7 °F /  12.6 °C 30.1in /  1018.0hPa NW 2.9mph /  4.7km/h 7mph /  11.3km/h 76% 0in /  0.0mm 135 W/m2
12:41 62.4 °F /  16.9 °C 54.7 °F /  12.6 °C 30.1in /  1018.0hPa West 2mph /  3.2km/h 3mph /  4.8km/h 76% 0in /  0.0mm 179 W/m2
12:46 63 °F /  17.2 °C 54.9 °F /  12.7 °C 30.1in /  1018.0hPa NW 2.9mph /  4.7km/h 5mph /  8km/h 75% 0in /  0.0mm 260 W/m2
12:51 63.3 °F /  17.4 °C 54.9 °F /  12.7 °C 30.1in /  1017.6hPa West 2.9mph /  4.7km/h 4mph /  6.4km/h 74% 0in /  0.0mm 287 W/m2
12:56 63.7 °F /  17.6 °C 55.2 °F /  12.9 °C 30.1in /  1017.6hPa WNW 2.9mph /  4.7km/h 4mph /  6.4km/h 74% 0in /  0.0mm 192 W/m2
13:01 63.7 °F /  17.6 °C 55.2 °F /  12.9 °C 30.1in /  1017.6hPa NW 4.9mph /  7.9km/h 9mph /  14.5km/h 74% 0in /  0.0mm 163 W/m2
13:06 63.7 °F /  17.6 °C 54.9 °F /  12.7 °C 30.1in /  1017.6hPa West 2.9mph /  4.7km/h 7mph /  11.3km/h 73% 0in /  0.0mm 134 W/m2
13:11 63.3 °F /  17.4 °C 54.9 °F /  12.7 °C 30.1in /  1017.6hPa West 4mph /  6.4km/h 9mph /  14.5km/h 74% 0in /  0.0mm 120 W/m2
13:16 63.3 °F /  17.4 °C 54.9 °F /  12.7 °C 30.1in /  1017.6hPa WNW 4mph /  6.4km/h 8mph /  12.9km/h 74% 0in /  0.0mm 116 W/m2
13:21 63.1 °F /  17.3 °C 54.7 °F /  12.6 °C 30.1in /  1017.6hPa West 2.9mph /  4.7km/h 9mph /  14.5km/h 74% 0in /  0.0mm 111 W/m2
13:26 63.1 °F /  17.3 °C 54.7 °F /  12.6 °C 30.1in /  1017.6hPa West 4mph /  6.4km/h 7mph /  11.3km/h 74% 0in /  0.0mm 98 W/m2
13:31 63.1 °F /  17.3 °C 54.7 °F /  12.6 °C 30.1in /  1017.6hPa WSW 4.9mph /  7.9km/h 9mph /  14.5km/h 74% 0in /  0.0mm 127 W/m2
13:36 63.1 °F /  17.3 °C 55 °F /  12.8 °C 30.1in /  1017.6hPa NW 4.9mph /  7.9km/h 10mph /  16.1km/h 75% 0in /  0.0mm 151 W/m2
13:41 63.3 °F /  17.4 °C 55.2 °F /  12.9 °C 30.1in /  1017.6hPa WNW 2.9mph /  4.7km/h 7mph /  11.3km/h 75% 0in /  0.0mm 158 W/m2
13:46 63.3 °F /  17.4 °C 54.9 °F /  12.7 °C 30.1in /  1017.6hPa West 4mph /  6.4km/h 10mph /  16.1km/h 74% 0in /  0.0mm 142 W/m2
13:51 63.5 °F /  17.5 °C 55 °F /  12.8 °C 30.1in /  1017.6hPa NNW 2.9mph /  4.7km/h 8mph /  12.9km/h 74% 0in /  0.0mm 148 W/m2
13:56 63.7 °F /  17.6 °C 55.6 °F /  13.1 °C 30.1in /  1017.6hPa West 6mph /  9.7km/h 9mph /  14.5km/h 75% 0in /  0.0mm 139 W/m2
14:01 63.7 °F /  17.6 °C 55.6 °F /  13.1 °C 30.1in /  1017.6hPa NW 2.9mph /  4.7km/h 7mph /  11.3km/h 75% 0in /  0.0mm 174 W/m2
14:06 63.5 °F /  17.5 °C 55.4 °F /  13 °C 30.1in /  1017.6hPa West 6.9mph /  11.1km/h 7mph /  11.3km/h 75% 0in /  0.0mm 190 W/m2
14:11 63.3 °F /  17.4 °C 55.6 °F /  13.1 °C 30.1in /  1017.6hPa WNW 4mph /  6.4km/h 7mph /  11.3km/h 76% 0in /  0.0mm 183 W/m2
14:16 63.1 °F /  17.3 °C 55 °F /  12.8 °C 30.1in /  1017.6hPa WSW 4mph /  6.4km/h 9mph /  14.5km/h 75% 0in /  0.0mm 195 W/m2
14:21 63.1 °F /  17.3 °C 55 °F /  12.8 °C 30.1in /  1017.6hPa NW 4.9mph /  7.9km/h 9mph /  14.5km/h 75% 0in /  0.0mm 218 W/m2
14:26 63.1 °F /  17.3 °C 54.7 °F /  12.6 °C 30.1in /  1017.6hPa WNW 2mph /  3.2km/h 4mph /  6.4km/h 74% 0in /  0.0mm 237 W/m2
14:31 63.7 °F /  17.6 °C 55.2 °F /  12.9 °C 30.1in /  1017.6hPa NW 2.9mph /  4.7km/h 5mph /  8km/h 74% 0in /  0.0mm 281 W/m2
14:36 63.9 °F /  17.7 °C 55 °F /  12.8 °C 30.1in /  1017.6hPa North 2.9mph /  4.7km/h 7mph /  11.3km/h 73% 0in /  0.0mm 250 W/m2
14:41 64 °F /  17.8 °C 55.2 °F /  12.9 °C 30.1in /  1017.6hPa NNW 4mph /  6.4km/h 7mph /  11.3km/h 73% 0in /  0.0mm 221 W/m2
14:46 64 °F /  17.8 °C 55.2 °F /  12.9 °C 30.1in /  1017.6hPa NE 0.9mph /  1.4km/h 3mph /  4.8km/h 73% 0in /  0.0mm 183 W/m2
14:51 64 °F /  17.8 °C 55.6 °F /  13.1 °C 30.1in /  1017.6hPa WNW 2mph /  3.2km/h 5mph /  8km/h 74% 0in /  0.0mm 216 W/m2
14:56 64 °F /  17.8 °C 55.2 °F /  12.9 °C 30.1in /  1017.6hPa WSW 2mph /  3.2km/h 4mph /  6.4km/h 73% 0in /  0.0mm 204 W/m2
15:01 64 °F /  17.8 °C 55.2 °F /  12.9 °C 30.1in /  1017.6hPa NW 2mph /  3.2km/h 4mph /  6.4km/h 73% 0in /  0.0mm 204 W/m2
15:06 64.2 °F /  17.9 °C 55.8 °F /  13.2 °C 30.1in /  1017.6hPa NNW 2mph /  3.2km/h 5mph /  8km/h 74% 0in /  0.0mm 207 W/m2
15:11 64.6 °F /  18.1 °C 55.4 °F /  13 °C 30in /  1017.3hPa ENE 0.9mph /  1.4km/h 4mph /  6.4km/h 72% 0in /  0.0mm 105 W/m2
15:16 64.6 °F /  18.1 °C 55.8 °F /  13.2 °C 30in /  1017.3hPa East 0.9mph /  1.4km/h 6mph /  9.7km/h 73% 0in /  0.0mm 37 W/m2
15:21 64.2 °F /  17.9 °C 55.4 °F /  13 °C 30.1in /  1017.6hPa WSW 10.1mph /  16.3km/h 10mph /  16.1km/h 73% 0in /  0.0mm 25 W/m2
15:26 64 °F /  17.8 °C 54.9 °F /  12.7 °C 30.1in /  1017.6hPa NW 2mph /  3.2km/h 6mph /  9.7km/h 72% 0in /  0.0mm 35 W/m2
15:31 64 °F /  17.8 °C 55.2 °F /  12.9 °C 30.1in /  1017.6hPa West 2mph /  3.2km/h 3mph /  4.8km/h 73% 0in /  0.0mm 49 W/m2
15:36 63.9 °F /  17.7 °C 55 °F /  12.8 °C 30.1in /  1017.6hPa NW 2mph /  3.2km/h 4mph /  6.4km/h 73% 0in /  0.0mm 58 W/m2
15:41 63.7 °F /  17.6 °C 54.9 °F /  12.7 °C 30.1in /  1017.6hPa North 4mph /  6.4km/h 5mph /  8km/h 73% 0in /  0.0mm 56 W/m2
15:46 63.3 °F /  17.4 °C 54.9 °F /  12.7 °C 30.1in /  1017.6hPa WNW 2.9mph /  4.7km/h 5mph /  8km/h 74% 0in /  0.0mm 67 W/m2
15:51 63.1 °F /  17.3 °C 54.7 °F /  12.6 °C 30.1in /  1017.6hPa NW 2.9mph /  4.7km/h 7mph /  11.3km/h 74% 0in /  0.0mm 72 W/m2
15:56 63.1 °F /  17.3 °C 54.7 °F /  12.6 °C 30.1in /  1017.6hPa NNE 0.9mph /  1.4km/h 4mph /  6.4km/h 74% 0in /  0.0mm 84 W/m2
16:01 63.1 °F /  17.3 °C 55 °F /  12.8 °C 30.1in /  1017.6hPa NW 4mph /  6.4km/h 7mph /  11.3km/h 75% 0in /  0.0mm 88 W/m2
16:06 63.1 °F /  17.3 °C 55.4 °F /  13 °C 30.1in /  1017.6hPa West 6mph /  9.7km/h 8mph /  12.9km/h 76% 0in /  0.0mm 132 W/m2
16:11 63.1 °F /  17.3 °C 55 °F /  12.8 °C 30.1in /  1017.6hPa Calm   5mph /  8km/h 75% 0in /  0.0mm 148 W/m2
16:16 63.1 °F /  17.3 °C 55 °F /  12.8 °C 30.1in /  1017.6hPa WNW 2.9mph /  4.7km/h 7mph /  11.3km/h 75% 0in /  0.0mm 250 W/m2
16:21 63.5 °F /  17.5 °C 55.4 °F /  13 °C 30in /  1017.3hPa West 4mph /  6.4km/h 5mph /  8km/h 75% 0in /  0.0mm 302 W/m2
16:26 63.9 °F /  17.7 °C 55.8 °F /  13.2 °C 30in /  1017.3hPa West 4mph /  6.4km/h 6mph /  9.7km/h 75% 0in /  0.0mm 202 W/m2
16:32 63.9 °F /  17.7 °C 55 °F /  12.8 °C 30in /  1017.3hPa WNW 4mph /  6.4km/h 10mph /  16.1km/h 73% 0in /  0.0mm 192 W/m2
16:37 63.9 °F /  17.7 °C 56.1 °F /  13.4 °C 30.1in /  1017.6hPa WNW 4.9mph /  7.9km/h 11mph /  17.7km/h 76% 0in /  0.0mm 264 W/m2
16:42 63.7 °F /  17.6 °C 55.2 °F /  12.9 °C 30.1in /  1017.6hPa West 2.9mph /  4.7km/h 6mph /  9.7km/h 74% 0in /  0.0mm 255 W/m2
16:47 63.7 °F /  17.6 °C 55.6 °F /  13.1 °C 30.1in /  1017.6hPa West 2.9mph /  4.7km/h 8mph /  12.9km/h 75% 0in /  0.0mm 236 W/m2
16:52 63.5 °F /  17.5 °C 55.4 °F /  13 °C 30.1in /  1017.6hPa NNW 6mph /  9.7km/h 8mph /  12.9km/h 75% 0in /  0.0mm 197 W/m2
16:57 63.3 °F /  17.4 °C 55.2 °F /  12.9 °C 30.1in /  1017.6hPa North 4mph /  6.4km/h 7mph /  11.3km/h 75% 0in /  0.0mm 113 W/m2
17:02 63.1 °F /  17.3 °C 55 °F /  12.8 °C 30.1in /  1017.6hPa North 2.9mph /  4.7km/h 10mph /  16.1km/h 75% 0in /  0.0mm 77 W/m2
17:07 63 °F /  17.2 °C 55.6 °F /  13.1 °C 30.1in /  1017.6hPa WNW 4mph /  6.4km/h 9mph /  14.5km/h 77% 0in /  0.0mm 118 W/m2
17:12 62.8 °F /  17.1 °C 55.4 °F /  13 °C 30in /  1017.3hPa West 2.9mph /  4.7km/h 10mph /  16.1km/h 77% 0in /  0.0mm 121 W/m2
17:17 62.4 °F /  16.9 °C 55.4 °F /  13 °C 30in /  1017.3hPa NW 2.9mph /  4.7km/h 6mph /  9.7km/h 78% 0in /  0.0mm 118 W/m2
17:22 62.2 °F /  16.8 °C 55.2 °F /  12.9 °C 30in /  1017.3hPa WNW 2.9mph /  4.7km/h 9mph /  14.5km/h 78% 0in /  0.0mm 111 W/m2
17:27 62.1 °F /  16.7 °C 55.4 °F /  13 °C 30in /  1017.3hPa WNW 4mph /  6.4km/h 6mph /  9.7km/h 79% 0in /  0.0mm 90 W/m2
17:32 61.9 °F /  16.6 °C 55.2 °F /  12.9 °C 30in /  1017.3hPa WNW 4.9mph /  7.9km/h 5mph /  8km/h 79% 0in /  0.0mm 72 W/m2
17:37 61.9 °F /  16.6 °C 55.6 °F /  13.1 °C 30in /  1017.3hPa NW 2mph /  3.2km/h 3mph /  4.8km/h 80% 0in /  0.0mm 102 W/m2
17:42 62.1 °F /  16.7 °C 55.8 °F /  13.2 °C 30in /  1017.3hPa WNW 8.1mph /  13km/h 8mph /  12.9km/h 80% 0in /  0.0mm 114 W/m2
17:47 61.9 °F /  16.6 °C 55.6 °F /  13.1 °C 30in /  1017.3hPa WSW 2.9mph /  4.7km/h 10mph /  16.1km/h 80% 0in /  0.0mm 97 W/m2
17:52 61.7 °F /  16.5 °C 55.4 °F /  13 °C 30in /  1017.3hPa WNW 2.9mph /  4.7km/h 7mph /  11.3km/h 80% 0in /  0.0mm 93 W/m2
17:57 61.5 °F /  16.4 °C 55.6 °F /  13.1 °C 30in /  1017.3hPa West 4mph /  6.4km/h 9mph /  14.5km/h 81% 0in /  0.0mm 84 W/m2
18:02 61.3 °F /  16.3 °C 55 °F /  12.8 °C 30in /  1017.3hPa SW 6mph /  9.7km/h 7mph /  11.3km/h 80% 0in /  0.0mm 69 W/m2
18:07 61.3 °F /  16.3 °C 55.4 °F /  13 °C 30in /  1017.3hPa WSW 4mph /  6.4km/h 5mph /  8km/h 81% 0in /  0.0mm 63 W/m2
18:12 61.3 °F /  16.3 °C 55.4 °F /  13 °C 30in /  1016.9hPa West 6mph /  9.7km/h 6mph /  9.7km/h 81% 0in /  0.0mm 60 W/m2
18:17 61.3 °F /  16.3 °C 55.4 °F /  13 °C 30in /  1016.9hPa NW 4mph /  6.4km/h 8mph /  12.9km/h 81% 0in /  0.0mm 54 W/m2
18:22 61.2 °F /  16.2 °C 55.2 °F /  12.9 °C 30in /  1016.9hPa WNW 2.9mph /  4.7km/h 7mph /  11.3km/h 81% 0in /  0.0mm 46 W/m2
18:27 61.2 °F /  16.2 °C 55.6 °F /  13.1 °C 30in /  1016.9hPa WNW 2.9mph /  4.7km/h 8mph /  12.9km/h 82% 0in /  0.0mm 40 W/m2
18:32 61.2 °F /  16.2 °C 55.6 °F /  13.1 °C 30in /  1016.9hPa WSW 6.9mph /  11.1km/h 8mph /  12.9km/h 82% 0in /  0.0mm 35 W/m2
18:37 61 °F /  16.1 °C 55.4 °F /  13 °C 30in /  1016.9hPa West 6mph /  9.7km/h 6mph /  9.7km/h 82% 0in /  0.0mm 39 W/m2
18:42 61 °F /  16.1 °C 55.4 °F /  13 °C 30in /  1016.9hPa WNW 4.9mph /  7.9km/h 8mph /  12.9km/h 82% 0in /  0.0mm 40 W/m2
18:47 61 °F /  16.1 °C 55.4 °F /  13 °C 30in /  1016.9hPa WNW 2.9mph /  4.7km/h 4mph /  6.4km/h 82% 0in /  0.0mm 37 W/m2
18:52 61 °F /  16.1 °C 55.4 °F /  13 °C 30in /  1016.9hPa WNW 6.9mph /  11.1km/h 9mph /  14.5km/h 82% 0in /  0.0mm 39 W/m2
18:57 61 °F /  16.1 °C 55.4 °F /  13 °C 30in /  1017.3hPa NNW 2.9mph /  4.7km/h 8mph /  12.9km/h 82% 0in /  0.0mm 44 W/m2
19:02 61 °F /  16.1 °C 55.4 °F /  13 °C 30in /  1016.9hPa NW 2.9mph /  4.7km/h 9mph /  14.5km/h 82% 0in /  0.0mm 40 W/m2
19:07 61 °F /  16.1 °C 55.4 °F /  13 °C 30in /  1016.9hPa WNW 2mph /  3.2km/h 6mph /  9.7km/h 82% 0in /  0.0mm 39 W/m2
19:12 61 °F /  16.1 °C 55.4 °F /  13 °C 30in /  1016.9hPa WNW 2.9mph /  4.7km/h 4mph /  6.4km/h 82% 0in /  0.0mm 28 W/m2
19:17 61 °F /  16.1 °C 55.4 °F /  13 °C 30in /  1016.9hPa WNW 2.9mph /  4.7km/h 5mph /  8km/h 82% 0in /  0.0mm 16 W/m2
19:22 60.8 °F /  16 °C 55.2 °F /  12.9 °C 30in /  1016.9hPa NW 0.9mph /  1.4km/h 5mph /  8km/h 82% 0in /  0.0mm 11 W/m2
19:27 61 °F /  16.1 °C 55.4 °F /  13 °C 30in /  1016.9hPa West 2mph /  3.2km/h 5mph /  8km/h 82% 0in /  0.0mm 9 W/m2
19:32 60.8 °F /  16 °C 55.2 °F /  12.9 °C 30in /  1016.9hPa WNW 2mph /  3.2km/h 6mph /  9.7km/h 82% 0in /  0.0mm 9 W/m2
19:37 60.8 °F /  16 °C 55.2 °F /  12.9 °C 30in /  1016.9hPa NW 4mph /  6.4km/h 7mph /  11.3km/h 82% 0in /  0.0mm 9 W/m2
19:42 60.8 °F /  16 °C 55.2 °F /  12.9 °C 30in /  1016.9hPa West 6.9mph /  11.1km/h 8mph /  12.9km/h 82% 0in /  0.0mm 7 W/m2
19:47 60.8 °F /  16 °C 55.2 °F /  12.9 °C 30in /  1016.9hPa West 4mph /  6.4km/h 9mph /  14.5km/h 82% 0in /  0.0mm 7 W/m2
19:52 60.6 °F /  15.9 °C 55 °F /  12.8 °C 30in /  1016.9hPa West 2.9mph /  4.7km/h 4mph /  6.4km/h 82% 0in /  0.0mm 5 W/m2
19:57 60.6 °F /  15.9 °C 55 °F /  12.8 °C 30in /  1016.9hPa WNW 4mph /  6.4km/h 9mph /  14.5km/h 82% 0in /  0.0mm 0 W/m2
20:02 60.6 °F /  15.9 °C 55 °F /  12.8 °C 30in /  1016.9hPa West 2mph /  3.2km/h 6mph /  9.7km/h 82% 0in /  0.0mm 0 W/m2
20:07 60.6 °F /  15.9 °C 55 °F /  12.8 °C 30in /  1016.9hPa West 4mph /  6.4km/h 8mph /  12.9km/h 82% 0in /  0.0mm 0 W/m2
20:12 60.4 °F /  15.8 °C 54.9 °F /  12.7 °C 30in /  1016.9hPa WNW 2.9mph /  4.7km/h 7mph /  11.3km/h 82% 0in /  0.0mm 0 W/m2
20:17 60.4 °F /  15.8 °C 55.2 °F /  12.9 °C 30in /  1017.3hPa West 6mph /  9.7km/h 8mph /  12.9km/h 83% 0in /  0.0mm 0 W/m2
20:22 60.4 °F /  15.8 °C 55.2 °F /  12.9 °C 30in /  1017.3hPa WNW 2mph /  3.2km/h 3mph /  4.8km/h 83% 0in /  0.0mm 0 W/m2
20:27 60.3 °F /  15.7 °C 55.4 °F /  13 °C 30in /  1017.3hPa West 2mph /  3.2km/h 8mph /  12.9km/h 84% 0in /  0.0mm 0 W/m2
20:32 60.1 °F /  15.6 °C 55.6 °F /  13.1 °C 30in /  1017.3hPa West 2mph /  3.2km/h 3mph /  4.8km/h 85% 0in /  0.0mm 0 W/m2
20:37 59.7 °F /  15.4 °C 55.6 °F /  13.1 °C 30in /  1017.3hPa West 4mph /  6.4km/h 7mph /  11.3km/h 86% 0in /  0.0mm 0 W/m2
20:42 59.5 °F /  15.3 °C 55.4 °F /  13 °C 30in /  1017.3hPa WNW 4mph /  6.4km/h 7mph /  11.3km/h 86% 0in /  0.0mm 0 W/m2
20:47 59.4 °F /  15.2 °C 55.8 °F /  13.2 °C 30in /  1017.3hPa WSW 2.9mph /  4.7km/h 4mph /  6.4km/h 88% 0in /  0.0mm 0 W/m2
20:52 59 °F /  15 °C 55.8 °F /  13.2 °C 30in /  1017.3hPa West 2.9mph /  4.7km/h 6mph /  9.7km/h 89% 0in /  0.0mm 0 W/m2
20:57 58.6 °F /  14.8 °C 55.4 °F /  13 °C 30in /  1017.3hPa West 4mph /  6.4km/h 7mph /  11.3km/h 89% 0in /  0.0mm 0 W/m2
21:02 58.5 °F /  14.7 °C 55.6 °F /  13.1 °C 30in /  1017.3hPa WNW 2.9mph /  4.7km/h 4mph /  6.4km/h 90% 0in /  0.0mm 0 W/m2
21:07 58.3 °F /  14.6 °C 55.6 °F /  13.1 °C 30in /  1017.3hPa WNW 2.9mph /  4.7km/h 7mph /  11.3km/h 91% 0in /  0.0mm 0 W/m2
21:12 58.3 °F /  14.6 °C 55.6 °F /  13.1 °C 30in /  1017.3hPa West 4mph /  6.4km/h 5mph /  8km/h 91% 0.01in /  0.2mm 0 W/m2
21:17 58.3 °F /  14.6 °C 55.6 °F /  13.1 °C 30in /  1016.9hPa West 6mph /  9.7km/h 7mph /  11.3km/h 91% 0.01in /  0.2mm 0 W/m2
21:22 58.1 °F /  14.5 °C 55.4 °F /  13 °C 30in /  1016.9hPa WNW 2.9mph /  4.7km/h 9mph /  14.5km/h 91% 0.01in /  0.2mm 0 W/m2
21:27 58.3 °F /  14.6 °C 55.6 °F /  13.1 °C 30in /  1016.9hPa West 4mph /  6.4km/h 9mph /  14.5km/h 91% 0.01in /  0.2mm 0 W/m2
21:32 58.3 °F /  14.6 °C 55.6 °F /  13.1 °C 30in /  1016.9hPa West 4mph /  6.4km/h 10mph /  16.1km/h 91% 0.01in /  0.2mm 0 W/m2
21:37 58.3 °F /  14.6 °C 55.6 °F /  13.1 °C 30in /  1016.9hPa West 6.9mph /  11.1km/h 10mph /  16.1km/h 91% 0.01in /  0.2mm 0 W/m2
21:42 58.3 °F /  14.6 °C 55.6 °F /  13.1 °C 30in /  1016.9hPa WSW 2.9mph /  4.7km/h 9mph /  14.5km/h 91% 0.01in /  0.2mm 0 W/m2
21:47 58.3 °F /  14.6 °C 55.6 °F /  13.1 °C 30in /  1016.9hPa WNW 6mph /  9.7km/h 7mph /  11.3km/h 91% 0.01in /  0.2mm 0 W/m2
21:52 58.3 °F /  14.6 °C 55.6 °F /  13.1 °C 30in /  1016.9hPa WSW 4.9mph /  7.9km/h 7mph /  11.3km/h 91% 0.01in /  0.2mm 0 W/m2
21:57 58.3 °F /  14.6 °C 55.6 °F /  13.1 °C 30in /  1016.9hPa West 6mph /  9.7km/h 9mph /  14.5km/h 91% 0.01in /  0.2mm 0 W/m2
22:02 58.1 °F /  14.5 °C 55.4 °F /  13 °C 30in /  1016.9hPa WSW 2.9mph /  4.7km/h 4mph /  6.4km/h 91% 0.01in /  0.2mm 0 W/m2
22:07 58.1 °F /  14.5 °C 55.8 °F /  13.2 °C 30in /  1016.9hPa West 2.9mph /  4.7km/h 6mph /  9.7km/h 92% 0.01in /  0.2mm 0 W/m2
22:12 58.3 °F /  14.6 °C 55.9 °F /  13.3 °C 30in /  1016.9hPa NW 2mph /  3.2km/h 7mph /  11.3km/h 92% 0in /  0.0mm 0 W/m2
22:17 58.3 °F /  14.6 °C 55.9 °F /  13.3 °C 30in /  1016.9hPa West 2.9mph /  4.7km/h 5mph /  8km/h 92% 0in /  0.0mm 0 W/m2
22:22 58.3 °F /  14.6 °C 55.9 °F /  13.3 °C 30in /  1016.9hPa West 2mph /  3.2km/h 5mph /  8km/h 92% 0in /  0.0mm 0 W/m2
22:27 58.3 °F /  14.6 °C 55.9 °F /  13.3 °C 30in /  1016.9hPa West 4mph /  6.4km/h 7mph /  11.3km/h 92% 0in /  0.0mm 0 W/m2
22:32 58.3 °F /  14.6 °C 55.9 °F /  13.3 °C 30in /  1016.9hPa West 2mph /  3.2km/h 4mph /  6.4km/h 92% 0in /  0.0mm 0 W/m2
22:37 58.3 °F /  14.6 °C 55.9 °F /  13.3 °C 30in /  1016.9hPa West 2mph /  3.2km/h 7mph /  11.3km/h 92% 0in /  0.0mm 0 W/m2
22:42 58.3 °F /  14.6 °C 55.9 °F /  13.3 °C 30in /  1016.9hPa West 2.9mph /  4.7km/h 6mph /  9.7km/h 92% 0in /  0.0mm 0 W/m2
22:47 58.3 °F /  14.6 °C 55.9 °F /  13.3 °C 30in /  1016.9hPa West 2.9mph /  4.7km/h 7mph /  11.3km/h 92% 0in /  0.0mm 0 W/m2
22:52 58.3 °F /  14.6 °C 55.9 °F /  13.3 °C 30in /  1016.9hPa WNW 6mph /  9.7km/h 8mph /  12.9km/h 92% 0in /  0.0mm 0 W/m2
22:57 58.3 °F /  14.6 °C 55.9 °F /  13.3 °C 30in /  1016.9hPa West 6.9mph /  11.1km/h 7mph /  11.3km/h 92% 0in /  0.0mm 0 W/m2
23:02 58.3 °F /  14.6 °C 55.9 °F /  13.3 °C 30in /  1016.9hPa WNW 2.9mph /  4.7km/h 7mph /  11.3km/h 92% 0in /  0.0mm 0 W/m2
23:07 58.3 °F /  14.6 °C 55.9 °F /  13.3 °C 30in /  1016.9hPa WNW 2.9mph /  4.7km/h 4mph /  6.4km/h 92% 0in /  0.0mm 0 W/m2
23:12 58.3 °F /  14.6 °C 55.9 °F /  13.3 °C 30in /  1016.9hPa West 2.9mph /  4.7km/h 4mph /  6.4km/h 92% 0in /  0.0mm 0 W/m2
23:17 58.3 °F /  14.6 °C 55.9 °F /  13.3 °C 30in /  1016.9hPa West 4mph /  6.4km/h 6mph /  9.7km/h 92% 0in /  0.0mm 0 W/m2
23:22 58.5 °F /  14.7 °C 56.1 °F /  13.4 °C 30in /  1016.9hPa West 2.9mph /  4.7km/h 8mph /  12.9km/h 92% 0in /  0.0mm 0 W/m2
23:27 58.5 °F /  14.7 °C 56.1 °F /  13.4 °C 30in /  1016.9hPa West 4mph /  6.4km/h 7mph /  11.3km/h 92% 0in /  0.0mm 0 W/m2
23:32 58.5 °F /  14.7 °C 56.1 °F /  13.4 °C 30in /  1016.9hPa West 4mph /  6.4km/h 7mph /  11.3km/h 92% 0in /  0.0mm 0 W/m2
23:37 58.5 °F /  14.7 °C 55.8 °F /  13.2 °C 30in /  1016.9hPa WSW 2.9mph /  4.7km/h 5mph /  8km/h 91% 0in /  0.0mm 0 W/m2
23:42 58.5 °F /  14.7 °C 56.1 °F /  13.4 °C 30in /  1016.9hPa West 2mph /  3.2km/h 6mph /  9.7km/h 92% 0in /  0.0mm 0 W/m2
23:47 58.5 °F /  14.7 °C 56.1 °F /  13.4 °C 30in /  1016.9hPa WNW 4mph /  6.4km/h 6mph /  9.7km/h 92% 0in /  0.0mm 0 W/m2
23:52 58.5 °F /  14.7 °C 56.1 °F /  13.4 °C 30in /  1016.9hPa West 4mph /  6.4km/h 6mph /  9.7km/h 92% 0in /  0.0mm 0 W/m2
23:57 58.5 °F /  14.7 °C 56.1 °F /  13.4 °C 30in /  1016.9hPa WNW 2mph /  3.2km/h 3mph /  4.8km/h 92% 0in /  0.0mm 0 W/m2
Juneau County Weather
Compliments of Weather Underground - 4 mb